CYMH

Mary's Harbour Airport

Mary's Harbour, Canada
METAR CYMH 181536Z AUTO 08010KT 9SM SCT009 BKN012 BKN022 OVC028 04/02 A2948 RMK SLP986
Observed Flight Rules
Oct-18 @ 15:36 UTC (20 minutes ago) Marginal Visual Flight Rules
Wind Visibility Clouds
80° at 10 knots 9 miles
  • Scattered at 900' AGL
  • Broken at 1,200' AGL
  • Broken at 2,200' AGL
  • Overcast at 2,800' AGL
Temperatures Readings
Current 4°C / 39°F
Dewpoint 2°C / 36°F
Humidity 87%
Altimeter 29.48" Hg
Pressure 998.6 hPa
Elevation 11
METAR CYMH 181536Z AUTO 08010KT 9SM SCT009 BKN012 BKN022 OVC028 04/02 A2948 RMK SLP986
Observed Flight Rules
Oct-18 @ 15:36 UTC
(20 minutes ago)
MVFR
Wind Visibility
80° at 10 knots 9 miles
Clouds
  • Scattered at 900' AGL
  • Broken at 1,200' AGL
  • Broken at 2,200' AGL
  • Overcast at 2,800' AGL
Temperature Dewpoint
4°C / 39°F 2°C / 36°F
Humidity Altimeter Pressure
87% 29.48" Hg 998.6 hPa